Tiempo atmosférico en la estación meteorológica de Portocolom, Illes Balears (17 m.)



Fecha
DESCASC
Temp. máxima en grados centígrados (hora)
DESCASC
Temp. mínima en grados centígrados (hora)
DESCASC
Temp. media en grados centígrados
DESCASC
Racha de viento máxima en m/sg (hora)
DESCASC
Velocidad máxima media en intervalos de 10 minutos(hora)
DESCASC
Precipitaciones diarias en mm
DESCASC
Precipitaciones de 00:00 a 06:00 en mm
DESCASC
Precipitaciones de 06:00 a 12:00 en mm
DESCASC
Precipitaciones de 12:00 a 18:00 en mm
DESCASC
Precipitaciones de 18:00 a 24:00 en mm
DESCASC
15-08-2019 29.5 (16:00) 21.1 (06:40) 25.3 8.33 (15:20) 6.67 (15:20) 0 0 0 0 0
14-08-2019 29.8 (14:40) 19.8 (00:00) 24.8 14.17 (15:30) 10.83 (13:40) 0 0 0 0 0
13-08-2019 27.5 (14:50) 21.9 (00:00) 24.7 13.89 (03:20) 8.89 (02:00) 0 0 0 0 0
12-08-2019 29.1 (13:30) 25.1 (00:00) 27.1 11.39 (21:20) 7.78 (23:30) 0 0 0 0 0
11-08-2019 30.9 (12:50) 26.3 (00:00) 28.6 11.67 (15:50) 9.17 (16:00) 0 0 0 0 0
10-08-2019 31.3 (12:30) 24.3 (00:00) 27.8 6.94 (14:10) 4.44 (06:40) 0 0 0 0 0
09-08-2019 30.6 (13:10) 23 (00:00) 26.8 10.56 (19:00) 8.61 (17:20) 0 0 0 0 0
08-08-2019 31.3 (14:00) 24.4 (00:00) 27.8 10 (18:30) 8.06 (18:30) 0 0 0 0 0
07-08-2019 30.8 (19:00) 23 (00:00) 26.9 12.78 (14:50) 10.28 (14:00) 0 0 0 0 0
06-08-2019 34.3 (17:20) 23.8 (00:00) 29 12.5 (14:10) 9.72 (14:20) 0 0 0 0 0
05-08-2019 31.2 (15:20) 22.7 (00:00) 27 4.72 (17:50) 2.78 (04:10) 0 0 0 0 0
04-08-2019 32.3 (14:10) 21.7 (00:00) 27 5.83 (06:10) 3.89 (06:10) 0 0 0 0 0
03-08-2019 30.2 (14:30) 21.2 (00:00) 25.7 6.11 (11:40) 4.17 (11:40) 0 0 0 0 0
02-08-2019 29.9 (12:50) 23.7 (00:00) 26.8 10.28 (11:30) 6.39 (11:20) 0 0 0 0 0
01-08-2019 30.8 (13:50) 24.8 (00:00) 27.8 10.83 (05:10) 6.94 (04:10) 0 0 0 0 0
31-07-2019 28.1 (16:20) 24.4 (00:00) 26.3 12.5 (14:10) 8.06 (14:40) 0 0 0 0 0
30-07-2019 30.4 (12:50) 21.4 (00:00) 25.9 7.22 (20:00) 4.72 (21:40) 0 0 0 0 0
29-07-2019 29.2 (14:30) 20 (00:00) 24.6 12.5 (15:40) 10.28 (15:30) 0 0 0 0 0
28-07-2019 29.8 (15:40) 21.9 (00:00) 25.8 11.11 (19:40) 8.33 (17:40) 0 0 0 0 0
27-07-2019 31.2 (13:50) 22.8 (00:00) 27 14.17 (17:30) 10.83 (13:10) 0 0 0 0 0
26-07-2019 31.1 (17:00) 23 (00:00) 27.1 7.22 (19:40) 5.56 (19:40) 0 0 0 0 0
25-07-2019 31.2 (15:30) 23.4 (00:00) 27.3 5.28 (09:20) 3.61 (10:20) 0 0 0 0 0
24-07-2019 30.7 (15:50) 22.8 (00:00) 26.8 5.83 (14:20) 4.17 (14:20) 0 0 0 0 0
23-07-2019 31.4 (14:10) 23 (00:00) 27.2 4.72 (18:30) 2.78 (05:20) 0 0 0 0 0
22-07-2019 31.9 (16:10) 22.7 (00:00) 27.3 5.83 (07:50) 3.89 (12:10) 0 0 0 0 0
21-07-2019 30.4 (15:40) 24.1 (00:00) 27.3 9.44 (07:50) 6.39 (07:50) 0 0 0 0 0
20-07-2019 30.3 (14:40) 25.1 (00:00) 27.7 7.5 (09:00) 5 (09:00) 0 0 0 0 0
19-07-2019 29.4 (15:20) 21.4 (00:00) 25.4 6.11 (18:30) 3.33 (17:10) 0 0 0 0 0

Gráficas

Temp. máximas Temp. mínimas Temp. medias Precipitaciones Rachas de viento máximas Velocidades máximas media en intervalos de 10 minutos

Datos horarios

Fecha y hora oficial Temperatura (ºC) Velocidad del viento (km/h) Dirección del viento Racha (km/h) Dirección de racha Precipitación (mm) Presión (hPa) Tendencia (hPa) Humedad (%)
2019-08-17 23:00:00 26.3 9 Sudeste 19 Sudeste 0 1012.6 0.3 86
2019-08-17 22:00:00 26.3 9 Sudeste 20 Sudeste 0 1012.6 0 85
2019-08-17 21:00:00 26.5 9 Sudeste 20 Sudeste 0 1012.2 -1 85
2019-08-17 20:00:00 27.1 12 Sur 19 Sudeste 0 1012.3 -1.2 82
2019-08-17 19:00:00 27.8 15 Sur 22 Sur 0 1012.6 -1.2 78
2019-08-17 18:00:00 28.5 17 Sur 23 Sur 0 1013.2 -1.2 76
2019-08-17 17:00:00 29.1 15 Sur 21 Sur 0 1013.5 -1.2 71
2019-08-17 16:00:00 29.5 17 Sur 22 Sur 0 1013.8 -1 69
2019-08-17 15:00:00 29.4 18 Sur 21 Sur 0 1014.4 -0.7 68
2019-08-17 14:00:00 29.5 15 Sur 21 Sur 0 1014.7 -0.3 68
2019-08-17 13:00:00 29.2 13 Sur 18 Sur 0 1014.8 -0.1 70
2019-08-17 12:00:00 28.9 9 Sur 17 Sudeste 0 1015.1 0.4 69
2019-08-17 11:00:00 28.7 7 Sudeste 15 Sudeste 0 1015 0.6 70
2019-08-17 10:00:00 28.2 5 Sudeste 12 Sudeste 0 1014.9 0.8 71
2019-08-17 09:00:00 26.4 4 Este 10 Norte 0 1014.7 0.7 79
2019-08-17 08:00:00 22.7 9 Norte 12 Norte 0 1014.4 0.1 89
2019-08-17 07:00:00 22.4 3 Norte 6 Norte 0 1014.1 -0.4 88
2019-08-17 06:00:00 22.4 6 Norte 7 Norte 0 1014 -0.8 88
2019-08-17 05:00:00 22.6 0 Calma 6 Norte 0 1014.3 -0.4 87
2019-08-17 04:00:00 22.9 3 Norte 5 Norte 0 1014.5 -0.4 87
2019-08-17 03:00:00 23.1 5 Norte 8 Norte 0 1014.8 -0.1 86
2019-08-17 02:00:00 24 3 Noroeste 13 Sudoeste 0 1014.7 -0.3 84
2019-08-17 01:00:00 24.4 4 Oeste 8 Sudoeste 0 1014.9 0.1 82
2019-08-17 00:00:00 24.8 2 Noroeste 14 Sudoeste 0 1014.9 0.5 79
2019-08-16 23:00:00 25.6 10 Sudoeste 17 Sudoeste 0 1015 0.8 78
2019-08-16 22:00:00 25.7 11 Sudoeste 17 Sudoeste 0 1014.8 0.6 78
2019-08-16 21:00:00 26 13 Sudoeste 20 Sudoeste 0 1014.4 -0.2 77
2019-08-16 20:00:00 27.3 17 Sudoeste 21 Sur 0 1014.2 -0.9 71
2019-08-16 19:00:00 28.5 14 Sudoeste 21 Sudoeste 0 1014.2 -1.3 65
2019-08-16 18:00:00 28.8 17 Sur 20 Sudoeste 0 1014.6 -1.5 64
2019-08-16 17:00:00 28.3 16 Sur 24 Sur 0 1015.1 -1.6 64
2019-08-16 16:00:00 28.2 19 Sur 25 Sur 0 1015.5 -1.6 64
2019-08-16 15:00:00 28.6 12 Sur 19 Sur 0 1016.1 -1.3 62
2019-08-16 14:00:00 28.6 12 Sur 19 Sudeste 0 1016.7 -0.8 62
2019-08-16 13:00:00 28.4 11 Sudeste 21 Sudeste 0 1017.1 0.1 62
2019-08-16 12:00:00 28.6 10 Sudeste 19 Sudeste 0 1017.4 0.6 62
2019-08-16 11:00:00 28.4 11 Este 17 Sudeste 0 1017.5 1 63
2019-08-16 10:00:00 27.6 8 Sudeste 17 Este 0 1017 0.9 62
2019-08-16 09:00:00 26.5 9 Este 17 Este 0 1016.8 0.8 67
2019-08-16 08:00:00 25.4 8 Sudeste 18 Sudeste 0 1016.5 0.4 74
2019-08-16 07:00:00 24.7 10 Sudeste 17 Sudeste 0 1016.1 -0.1 76
2019-08-16 06:00:00 24.8 11 Este 21 Este 0 1016 -0.6 76
2019-08-16 05:00:00 24.9 10 Este 21 Este 0 1016.1 -0.7 76
2019-08-16 04:00:00 25 11 Este 19 Sudeste 0 1016.2 -0.8 77
2019-08-16 03:00:00 25.2 12 Este 21 Este 0 1016.6 -0.5 75
2019-08-16 02:00:00 25.3 13 Este 22 Este 0 1016.8 0.1 74
2019-08-16 01:00:00 25.5 9 Este 17 Este 0 1017 0.7 71
2019-08-16 00:00:00 25.6 9 Este 14 Este 0 1017.1 1.1 79
2019-08-15 23:00:00 25.6 7 Sur 16 Sur 0 1016.7 0.8 78
2019-08-15 22:00:00 25.8 12 Sur 18 Sudoeste 0 1016.3 0.7 78
2019-08-15 21:00:00 25.9 12 Sur 18 Sudoeste 0 1016 0.2 75
2019-08-15 20:00:00 27.1 11 Sur 18 Sur 0 1015.9 0 69
2019-08-15 19:00:00 27.9 14 Sur 22 Sur 0 1015.6 -0.8 67
2019-08-15 18:00:00 29 18 Sudoeste 26 Sudoeste 0 1015.8 -0.8 66
2019-08-15 17:00:00 29.2 21 Sur 30 Sudoeste 0 1015.9 -1 64
2019-08-15 16:00:00 29.5 23 Sudoeste 30 Sudoeste 0 1016.4 -0.7 66
2019-08-15 15:00:00 28.9 21 Sur 26 Sudoeste 0 1016.6 -0.8 66
2019-08-15 14:00:00 28.3 17 Sur 21 Sur 0 1016.9 -0.4 66
2019-08-15 13:00:00 28 11 Sur 21 Sur 0 1017.1 -0.1 67
2019-08-15 12:00:00 28.3 12 Sur 17 Sur 0 1017.4 0.4 66
2019-08-15 11:00:00 28.5 6 Sudeste 12 Sudeste 0 1017.3 0.7 66
2019-08-15 10:00:00 27.6 5 Sudeste 11 Sudeste 0 1017.2 1.1 70
2019-08-15 09:00:00 25.9 3 Sur 6 Noroeste 0 1017 1.1 76
2019-08-15 08:00:00 22.4 5 Noroeste 8 Noroeste 0 1016.6 0.8 84
2019-08-15 07:00:00 21.1 6 Noroeste 8 Noroeste 0 1016.1 0 87
2019-08-15 06:00:00 21.2 6 Noroeste 8 Noroeste 0 1015.9 -0.3 85
2019-08-15 05:00:00 21.2 7 Norte 9 Norte 0 1015.8 -0.6 84
2019-08-15 04:00:00 21.7 7 Norte 9 Norte 0 1016.1 -0.5 82
2019-08-15 03:00:00 21.7 8 Norte 9 Norte 0 1016.2 -0.3 81
2019-08-15 02:00:00 22.2 8 Norte 9 Norte 0 1016.4 0 79
2019-08-15 01:00:00 22.9 5 Norte 7 Noroeste 0 1016.6 0.4 78
2019-08-15 00:00:00 24.1 2 Nordeste 6 Sudoeste 0 1016.5 0.7 74
2019-08-14 23:00:00 24.6 4 Oeste 8 Oeste 0 1016.4 1.2 72
2019-08-14 22:00:00 25.3 4 Oeste 13 Oeste 0 1016.2 1.1 69
2019-08-14 21:00:00 26 8 Oeste 23 Oeste 0 1015.8 0.8 65
2019-08-14 20:00:00 27.7 14 Oeste 27 Oeste 0 1015.2 0.1 60
2019-08-14 19:00:00 28.5 16 Oeste 40 Sudoeste 0 1015.1 -0.3 58
2019-08-14 18:00:00 29.2 22 Sudoeste 46 Sudoeste 0 1015 -0.9 56
2019-08-14 17:00:00 29 24 Sudoeste 47 Sudoeste 0 1015.1 -1.1 53
2019-08-14 16:00:00 29.6 23 Oeste 51 Sudoeste 0 1015.4 -1 48
2019-08-14 15:00:00 29.6 23 Sudoeste 49 Sudoeste 0 1015.9 -0.8 48
2019-08-14 14:00:00 27.9 35 Sudoeste 50 Sudoeste 0 1016.2 -0.8 66
2019-08-14 13:00:00 27.5 36 Sudoeste 48 Sudoeste 0 1016.4 -0.7 66
2019-08-14 12:00:00 27.7 31 Sudoeste 40 Sudoeste 0 1016.7 -0.3 66
2019-08-14 11:00:00 27.6 24 Sudoeste 32 Sudoeste 0 1017 0.2 64
2019-08-14 10:00:00 26.8 15 Sudoeste 19 Sudoeste 0 1017.1 0.4 67
2019-08-14 09:00:00 25 11 Sudoeste 17 Sudoeste 0 1017 0.3 70
2019-08-14 08:00:00 21 4 Noroeste 6 Norte 0 1016.8 0.1 79
2019-08-14 07:00:00 19.9 5 Norte 8 Norte 0 1016.7 -0.1 82
2019-08-14 06:00:00 20.5 6 Norte 9 Norte 0 1016.7 0 79
2019-08-14 05:00:00 20.5 8 Norte 10 Norte 0 1016.7 -0.2 79
2019-08-14 04:00:00 20.1 9 Norte 10 Norte 0 1016.8 0 79
2019-08-14 03:00:00 21.1 7 Norte 13 Norte 0 1016.7 0.2 76
2019-08-14 02:00:00 21.2 8 Norte 12 Norte 0 1016.9 0.5 74
2019-08-14 01:00:00 21.1 9 Norte 12 Norte 0 1016.8 0.7 74
2019-08-14 00:00:00 21.9 6 Norte 8 Norte 0 1016.5 0.9 72
2019-08-13 23:00:00 22.4 5 Norte 8 Norte 0 1016.4 1 70
2019-08-13 22:00:00 23.6 4 Nordeste 13 Este 0 1016.1 0.9 66
2019-08-13 21:00:00 24.1 7 Este 19 Nordeste 0 1015.6 0.4 65
2019-08-13 20:00:00 24.9 11 Este 26 Este 0 1015.4 0.4 63
2019-08-13 19:00:00 25.2 17 Este 29 Este 0 1015.2 0.2 61
2019-08-13 18:00:00 25.9 19 Este 31 Este 0 1015.2 -0.3 61
2019-08-13 17:00:00 26.7 19 Este 34 Este 0 1015 -1.2 58
2019-08-13 16:00:00 26.3 20 Este 33 Este 0 1015 -1.7 57
2019-08-13 15:00:00 26.9 19 Nordeste 33 Nordeste 0 1015.5 -1.1 56
2019-08-13 14:00:00 26.9 19 Nordeste 36 Nordeste 0 1016.2 -0.1 53
2019-08-13 13:00:00 25.8 21 Nordeste 40 Nordeste 0 1016.7 0.6 58
2019-08-13 12:00:00 25.8 28 Nordeste 46 Nordeste 0 1016.6 1.2 55
2019-08-13 11:00:00 26.1 27 Nordeste 42 Nordeste 0 1016.3 1.2 53
2019-08-13 10:00:00 25.9 26 Nordeste 46 Nordeste 0 1016.1 1.2 57
2019-08-13 09:00:00 24.9 27 Nordeste 47 Nordeste 0 1015.4 0.8 61
2019-08-13 08:00:00 24.2 25 Nordeste 44 Nordeste 0 1015.1 0.1 65
2019-08-13 07:00:00 23.6 22 Nordeste 46 Nordeste 0 1014.9 -0.3 66
2019-08-13 06:00:00 23.8 26 Nordeste 44 Nordeste 0 1014.6 -0.5 65
2019-08-13 05:00:00 24 19 Nordeste 45 Nordeste 0 1015 -0.3 62
2019-08-13 04:00:00 24.4 21 Nordeste 50 Nordeste 0 1015.2 -0.1 65
2019-08-13 03:00:00 24.7 27 Nordeste 46 Nordeste 0 1015.1 0.2 64
2019-08-13 02:00:00 25.1 32 Nordeste 48 Nordeste 0 1015.3 0.7 68
2019-08-13 01:00:00 25.3 23 Nordeste 40 Nordeste 0 1015.3 1.3 68
2019-08-13 00:00:00 25.3 27 Nordeste 41 Nordeste 0 1014.9 2 62
2019-08-12 23:00:00 25.3 21 Nordeste 39 Nordeste 0 1014.6 2.1 67
2019-08-12 22:00:00 25.2 21 Nordeste 41 Nordeste 0 1014 2.1 70
2019-08-12 21:00:00 25.2 24 Nordeste 37 Nordeste 0 1012.9 1.2 70
2019-08-12 20:00:00 25.9 22 Nordeste 36 Nordeste 0 1012.5 0.7 71
2019-08-12 19:00:00 26.8 24 Nordeste 35 Nordeste 0 1011.9 -0.2 70
2019-08-12 18:00:00 27.3 22 Nordeste 36 Nordeste 0 1011.7 -0.4 71
2019-08-12 17:00:00 28 20 Nordeste 37 Nordeste 0 1011.8 -0.4 70
2019-08-12 16:00:00 28.1 21 Nordeste 38 Nordeste 0 1012.1 -0.2 70
2019-08-12 15:00:00 28.5 25 Nordeste 37 Nordeste 0 1012.1 -0.2 71
2019-08-12 14:00:00 28.2 22 Nordeste 33 Nordeste 0 1012.2 0.8 73
2019-08-12 13:00:00 28.6 18 Nordeste 31 Nordeste 0 1012.3 1.3 72
2019-08-12 12:00:00 28.5 15 Este 27 Nordeste 0 1012.3 1.7 72
2019-08-12 11:00:00 26.9 17 Nordeste 29 Nordeste 0 1011.4 1.6 77
2019-08-12 10:00:00 26 20 Nordeste 30 Nordeste 0 1011 1.7 82
2019-08-12 09:00:00 25.8 22 Nordeste 39 Nordeste 0 1010.6 1.6 84
2019-08-12 08:00:00 26 23 Nordeste 40 Nordeste 0 1009.8 1.1 86
2019-08-12 07:00:00 26 10 Nordeste 16 Nordeste 0 1009.3 0.2 88
2019-08-12 06:00:00 25.9 6 Nordeste 17 Norte 0 1009 -1 88
2019-08-12 05:00:00 26.1 8 Norte 11 Norte 0 1008.7 -2.8 88
2019-08-12 04:00:00 26.3 5 Norte 12 Norte 0 1009.1 -2 88
2019-08-12 03:00:00 26.8 6 Norte 21 Oeste 0 1010 -0.5 86
2019-08-12 02:00:00 27.2 14 Oeste 23 Oeste 0 1011.5 1.2 86
2019-08-12 01:00:00 26.9 15 Oeste 23 Oeste 0 1011.1 1.3 86
2019-08-12 00:00:00 27.1 4 Oeste 8 Norte 0 1010.5 1.1 85
2019-08-11 23:00:00 27.3 3 Norte 8 Norte 0 1010.3 1.4 82
2019-08-11 22:00:00 27.7 7 Este 13 Este 0 1009.8 1.2 85
2019-08-11 21:00:00 28.1 5 Sudoeste 26 Sudoeste 0 1009.4 0.6 76
2019-08-11 20:00:00 29.4 17 Sudoeste 34 Sudoeste 0 1008.9 -0.4 66
2019-08-11 19:00:00 28.7 28 Sudoeste 37 Sudoeste 0 1008.6 -1 81
2019-08-11 18:00:00 29.3 31 Sudoeste 39 Sudoeste 0 1008.8 -1.3 77
2019-08-11 17:00:00 29.8 32 Sudoeste 39 Sudoeste 0 1009.3 -1.1 75
2019-08-11 16:00:00 29.2 33 Sudoeste 42 Sudoeste 0 1009.6 -1.3 76
2019-08-11 15:00:00 30.3 29 Sudoeste 35 Sudoeste 0 1010.1 -1.5 72
2019-08-11 14:00:00 30.5 27 Sudoeste 35 Sudoeste 0 1010.4 -0.9 71
2019-08-11 13:00:00 30.9 22 Sudoeste 27 Sudoeste 0 1010.9 -0.1 72
2019-08-11 12:00:00 30.7 18 Sudoeste 23 Sudoeste 0 1011.6 0.4 72
2019-08-11 11:00:00 30.2 10 Sudoeste 14 Sudoeste 0 1011.3 0.1 76
2019-08-11 10:00:00 28.3 10 Sur 15 Sur 0 1011 0.1 81
2019-08-11 09:00:00 27.9 7 Sur 14 Sudeste 0 1011.2 0.1 83
2019-08-11 08:00:00 27 6 Sudeste 13 Sudeste 0 1011.2 -0.2 88
2019-08-11 07:00:00 26.3 6 Este 12 Este 0 1010.9 -0.6 89
2019-08-11 06:00:00 26.4 6 Este 12 Sudeste 0 1011.1 -0.8 88
2019-08-11 05:00:00 26.7 6 Este 12 Este 0 1011.4 -0.8 89
2019-08-11 04:00:00 26.6 6 Este 11 Sudeste 0 1011.5 -0.9 89
2019-08-11 03:00:00 26.7 6 Sudeste 12 Sudeste 0 1011.9 -0.8 88
2019-08-11 02:00:00 27 5 Sudeste 14 Sudeste 0 1012.2 -0.8 88
2019-08-11 01:00:00 27.2 6 Sudeste 14 Sur 0 1012.4 -0.5 89
2019-08-11 00:00:00 27.4 6 Sudeste 12 Sudeste 0 1012.7 0.1 89
2019-08-10 23:00:00 27.5 7 Este 13 Este 0 1013 0.6 90
2019-08-10 22:00:00 27.3 8 Este 13 Este 0 1012.9 0.3 90
2019-08-10 21:00:00 27.3 8 Nordeste 15 Nordeste 0 1012.6 0.1 87
2019-08-10 20:00:00 28.3 8 Nordeste 17 Este 0 1012.4 -0.2 84
2019-08-10 19:00:00 29.3 10 Nordeste 21 Nordeste 0 1012.6 -0.3 78
2019-08-10 18:00:00 30.1 11 Nordeste 19 Este 0 1012.5 -1 76
2019-08-10 17:00:00 30.6 11 Nordeste 21 Nordeste 0 1012.6 -1.3 72
2019-08-10 16:00:00 30.3 12 Nordeste 23 Este 0 1012.9 -0.7 75
2019-08-10 15:00:00 29.7 16 Este 25 Este 0 1013.5 -0.6 77
2019-08-10 14:00:00 30 14 Este 21 Este 0 1013.9 0.3 76
2019-08-10 13:00:00 30.5 11 Este 17 Este 0 1013.6 0.6 72
2019-08-10 12:00:00 30.7 8 Sur 12 Sur 0 1014.1 1.5 69
2019-08-10 11:00:00 29.6 6 Sudeste 10 Sudeste 0 1013.6 1.3 74
2019-08-10 10:00:00 28.3 5 Este 11 Nordeste 0 1013 1.4 80
2019-08-10 09:00:00 26.7 7 Nordeste 16 Nordeste 0 1012.6 1.6 85
2019-08-10 08:00:00 25.2 10 Nordeste 18 Nordeste 0 1012.3 1.3 92
2019-08-10 07:00:00 24.6 6 Oeste 21 Sudoeste 0 1011.6 0.6 92
2019-08-10 06:00:00 25.1 10 Sudoeste 17 Sudoeste 0 1011 0 93
2019-08-10 05:00:00 25.1 10 Sudoeste 15 Oeste 0 1011 -0.1 93
2019-08-10 04:00:00 25 9 Sudoeste 18 Oeste 0 1011 -0.3 92
2019-08-10 03:00:00 25.3 10 Oeste 18 Oeste 0 1011 -0.4 92
2019-08-10 02:00:00 25.5 9 Oeste 15 Oeste 0 1011.1 0 91
2019-08-10 01:00:00 25.7 10 Oeste 15 Oeste 0 1011.3 0.6 91
2019-08-10 00:00:00 25.7 7 Sudoeste 14 Sudoeste 0 1011.4 1.5 91
2019-08-09 23:00:00 26 10 Sudoeste 15 Sudoeste 0 1011.1 1.5 89
2019-08-09 22:00:00 26.4 9 Sudoeste 24 Sudoeste 0 1010.7 1.2 85
2019-08-09 21:00:00 27.1 17 Sudoeste 32 Sudoeste 0 1009.9 0 83
2019-08-09 20:00:00 28.8 15 Sudoeste 35 Sudoeste 0 1009.6 -0.8 77
2019-08-09 19:00:00 28.6 28 Sudoeste 38 Sudoeste 0 1009.5 -1.4 81
2019-08-09 18:00:00 29.2 30 Sudoeste 37 Sudoeste 0 1009.9 -1.5 77
2019-08-09 17:00:00 29.8 30 Sudoeste 37 Sudoeste 0 1010.4 -1.2 74
2019-08-09 16:00:00 30.3 28 Sudoeste 36 Sudoeste 0 1010.9 -0.8 73
2019-08-09 15:00:00 30.4 27 Sudoeste 34 Sudoeste 0 1011.4 -0.3 72
2019-08-09 14:00:00 30.5 26 Sudoeste 30 Sudoeste 0 1011.6 -0.1 72
2019-08-09 13:00:00 30.3 20 Sudoeste 27 Sudoeste 0 1011.7 0.5 71
2019-08-09 12:00:00 29.7 22 Sudoeste 28 Sudoeste 0 1011.7 0.5 74
2019-08-09 11:00:00 29.1 19 Sudoeste 23 Sudoeste 0 1011.7 0.6 77
2019-08-09 10:00:00 28.2 14 Sudoeste 18 Sudoeste 0 1011.2 0.3 80
2019-08-09 09:00:00 26.5 6 Sudoeste 13 Oeste 0 1011.2 0.5 88
2019-08-09 08:00:00 24.2 4 Noroeste 9 Oeste 0 1011.1 0.3 92
2019-08-09 07:00:00 23.7 4 Noroeste 12 Oeste 0 1010.9 0.1 91
2019-08-09 06:00:00 24.9 6 Oeste 12 Oeste 0 1010.7 -0.2 91
2019-08-09 05:00:00 25.3 8 Oeste 14 Oeste 0 1010.8 -0.1 90
2019-08-09 04:00:00 25.3 7 Oeste 14 Oeste 0 1010.8 0 90
2019-08-09 03:00:00 25.7 8 Sudoeste 15 Sudoeste 0 1010.9 0.2 90
2019-08-09 02:00:00 25.8 9 Sudoeste 14 Sudoeste 0 1010.9 0.4 91
2019-08-09 01:00:00 25.8 8 Oeste 16 Oeste 0 1010.8 0.8 90
2019-08-09 00:00:00 25.7 9 Sudoeste 17 Sudoeste 0 1010.7 1.2 87
2019-08-08 23:00:00 26.1 9 Sudoeste 16 Sudoeste 0 1010.5 1.5 83
2019-08-08 22:00:00 26.9 13 Sudoeste 19 Sudoeste 0 1010 0.9 89
2019-08-08 21:00:00 27.3 14 Sudoeste 25 Sudoeste 0 1009.5 0 87
2019-08-08 20:00:00 28.2 21 Sudoeste 33 Sudoeste 0 1009 -0.8 83
2019-08-08 19:00:00 28.8 26 Sudoeste 36 Sudoeste 0 1009.1 -1.2 80
2019-08-08 18:00:00 29.6 25 Sudoeste 32 Sudoeste 0 1009.5 -1.2 76
2019-08-08 17:00:00 30.3 25 Sudoeste 31 Sudoeste 0 1009.8 -1 73
2019-08-08 16:00:00 31.1 21 Sudoeste 27 Sudoeste 0 1010.3 -0.8 70
2019-08-08 15:00:00 31.1 23 Sudoeste 28 Sudoeste 0 1010.7 -0.3 70
2019-08-08 14:00:00 31.2 23 Sudoeste 29 Sudoeste 0 1010.8 0.1 70
2019-08-08 13:00:00 31.1 17 Sudoeste 21 Sudoeste 0 1011.1 0.4 69
2019-08-08 12:00:00 30.5 9 Sur 12 Sur 0 1011 0.5 71
2019-08-08 11:00:00 30 6 Sur 9 Sur 0 1010.7 0.7 73
2019-08-08 10:00:00 28.6 8 Sur 12 Sur 0 1010.7 1.1 77
2019-08-08 09:00:00 27.6 4 Sudeste 7 Este 0 1010.5 1.5 79
2019-08-08 08:00:00 25.2 4 Norte 10 Nordeste 0 1010 1.5 88
2019-08-08 07:00:00 24.5 7 Norte 11 Nordeste 0 1009.6 0.7 89
2019-08-08 06:00:00 24.6 6 Norte 18 Norte 0 1009 -0.4 88
2019-08-08 05:00:00 24.6 9 Norte 15 Este 0 1008.5 -1.2 89
2019-08-08 04:00:00 24.4 7 Norte 11 Norte 0 1008.9 -0.7 88
2019-08-08 03:00:00 25 6 Norte 9 Norte 0 1009.4 -0.5 90
2019-08-08 02:00:00 25.5 3 Sudoeste 8 Norte 0 1009.7 0.1 87
2019-08-08 01:00:00 25.6 4 Nordeste 12 Este 0 1009.6 0.4 86
2019-08-08 00:00:00 26.5 9 Este 15 Este 0 1009.9 1.7 87
2019-08-07 23:00:00 26.8 10 Este 16 Este 0 1009.6 1.6 84
2019-08-07 22:00:00 26.7 9 Nordeste 17 Nordeste 0 1009.2 1.5 85
2019-08-07 21:00:00 27 11 Nordeste 22 Nordeste 0 1008.2 0.6 85
2019-08-07 20:00:00 28.3 10 Nordeste 22 Nordeste 0 1008 0.7 81
2019-08-07 19:00:00 30.8 7 Noroeste 35 Sudoeste 0 1007.7 -0.1 69
2019-08-07 18:00:00 29.8 29 Sudoeste 39 Sudoeste 0 1007.6 -0.5 72
2019-08-07 17:00:00 29.8 29 Sudoeste 41 Sudoeste 0 1007.3 -1 74
2019-08-07 16:00:00 29.4 32 Sudoeste 41 Sudoeste 0 1007.8 -0.6 75
2019-08-07 15:00:00 29.9 32 Sudoeste 46 Sudoeste 0 1008.1 -0.4 74
2019-08-07 14:00:00 29.6 37 Sudoeste 45 Sudoeste 0 1008.3 -0.2 72
2019-08-07 13:00:00 29.7 30 Sudoeste 37 Sudoeste 0 1008.4 0.2 74
2019-08-07 12:00:00 29.4 21 Sudoeste 28 Sudoeste 0 1008.5 0.7 76
2019-08-07 11:00:00 28.7 17 Sudoeste 23 Sudoeste 0 1008.5 1.2 77
2019-08-07 10:00:00 27.4 10 Sur 14 Sudoeste 0 1008.2 1.5 82
2019-08-07 09:00:00 26 4 Este 7 Norte 0 1007.8 0.7 86
2019-08-07 08:00:00 23.6 7 Norte 10 Norte 0 1007.3 0 91
2019-08-07 07:00:00 23.1 7 Norte 10 Norte 0 1006.7 -1.3 91
2019-08-07 06:00:00 23.7 6 Norte 8 Norte 0 1007.1 -0.9 91
2019-08-07 05:00:00 24.3 6 Norte 8 Norte 0 1007.3 -1.2 91
2019-08-07 04:00:00 24.3 4 Noroeste 8 Norte 0 1008 -0.8 90
2019-08-07 03:00:00 24.6 4 Norte 6 Norte 0 1008 -0.9 89
2019-08-07 02:00:00 24.9 4 Noroeste 7 Norte 0 1008.5 -0.2 90
2019-08-07 01:00:00 24.8 5 Norte 6 Norte 0 1008.8 0.8 88
2019-08-07 00:00:00 25.9 3 Este 9 Este 0 1008.9 1.2 86
2019-08-06 23:00:00 26.1 5 Este 14 Este 0 1008.7 0.6 85
2019-08-06 22:00:00 26.4 10 Este 18 Este 0 1008 -0.1 84
2019-08-06 21:00:00 26.6 10 Nordeste 17 Este 0 1007.7 -0.5 83
2019-08-06 20:00:00 27.8 9 Nordeste 18 Este 0 1008.1 -0.3 80
2019-08-06 19:00:00 28.7 12 Nordeste 27 Nordeste 0 1008.1 -0.6 76
2019-08-06 18:00:00 29.7 15 Nordeste 30 Nordeste 0 1008.2 -1.1 73
2019-08-06 17:00:00 33.7 19 Oeste 35 Oeste 0 1008.4 -1.1 52
2019-08-06 16:00:00 33.7 16 Oeste 37 Sudoeste 0 1008.7 -1.4 50
2019-08-06 15:00:00 31.2 24 Sudoeste 45 Sudoeste 0 1009.3 -1.3 68
2019-08-06 14:00:00 29.9 33 Sudoeste 41 Sudoeste 0 1009.5 -1 74
2019-08-06 13:00:00 30.3 23 Sudoeste 29 Sudoeste 0 1010.1 -0.2 71
2019-08-06 12:00:00 30.7 11 Sudoeste 15 Sudoeste 0 1010.6 -0.2 69
2019-08-06 11:00:00 29.7 8 Sur 11 Sur 0 1010.5 0 73
2019-08-06 10:00:00 28.2 5 Sudeste 9 Sur 0 1010.3 0.3 79
2019-08-06 09:00:00 26.8 4 Sudeste 9 Sudeste 0 1010.8 0.6 85
2019-08-06 08:00:00 24.4 5 Norte 12 Norte 0 1010.5 0.4 93
2019-08-06 07:00:00 23.8 8 Norte 13 Nordeste 0 1010 -0.9 93
2019-08-06 06:00:00 23.9 7 Norte 14 Norte 0 1010.2 -0.8 93
2019-08-06 05:00:00 24.1 6 Norte 13 Nordeste 0 1010.1 -1.5 92
2019-08-06 04:00:00 24.2 6 Norte 8 Norte 0 1010.9 -0.6 91
2019-08-06 03:00:00 24.5 6 Norte 7 Sudoeste 0 1011 -0.1 90
2019-08-06 02:00:00 25.8 6 Sudoeste 13 Sur 0 1011.6 0.8 88
2019-08-06 01:00:00 26.2 8 Sur 13 Sur 0 1011.5 0.7 87
2019-08-06 00:00:00 26.2 8 Sur 13 Sudeste 0 1011.1 0.6 87
2019-08-05 23:00:00 26.3 5 Sudeste 13 Sudeste 0 1010.8 0.2 87
2019-08-05 22:00:00 26.4 7 Sudeste 16 Sudeste 0 1010.8 0 87
2019-08-05 21:00:00 26.8 6 Sudeste 14 Sudeste 0 1010.5 -0.7 86
2019-08-05 20:00:00 27.7 6 Sudeste 13 Sudeste 0 1010.6 -1.2 83
2019-08-05 19:00:00 29 5 Sur 13 Sur 0 1010.8 -1.1 77
2019-08-05 18:00:00 29.9 6 Sudeste 17 Sudeste 0 1011.2 -1.1 72
2019-08-05 17:00:00 30.2 7 Sudeste 15 Sudeste 0 1011.8 -0.8 69
2019-08-05 16:00:00 30.2 9 Sudeste 16 Sudeste 0 1011.9 -1 70
2019-08-05 15:00:00 30.9 9 Sudeste 14 Sudeste 0 1012.3 -0.7 66
2019-08-05 14:00:00 30.8 7 Sudeste 14 Sudeste 0 1012.6 -0.2 65
2019-08-05 13:00:00 30.4 7 Sudeste 13 Sudeste 0 1012.9 0 67
2019-08-05 12:00:00 30.2 6 Sudeste 16 Sudeste 0 1013 0.3 67
2019-08-05 11:00:00 29.4 8 Sudeste 15 Sur 0 1012.8 0.4 70
2019-08-05 10:00:00 28.4 9 Sudeste 14 Este 0 1012.9 0.8 72
2019-08-05 09:00:00 27.2 8 Este 14 Este 0 1012.7 0.6 78
2019-08-05 08:00:00 24.6 4 Nordeste 11 Norte 0 1012.4 0.2 89
2019-08-05 07:00:00 22.8 8 Norte 12 Norte 0 1012.1 -0.3 90
2019-08-05 06:00:00 23 9 Norte 13 Nordeste 0 1012.1 -0.6 89
2019-08-05 05:00:00 23.3 8 Norte 13 Norte 0 1012.2 -0.6 87
2019-08-05 04:00:00 23.1 10 Norte 13 Norte 0 1012.4 -0.4 87
2019-08-05 03:00:00 23.3 9 Norte 12 Norte 0 1012.7 -0.2 85
2019-08-05 02:00:00 23.5 8 Norte 10 Norte 0 1012.8 0.4 83
2019-08-05 01:00:00 24.7 5 Noroeste 10 Sur 0 1012.8 0.9 78
2019-08-05 00:00:00 26.1 3 Sudeste 13 Sudeste 0 1012.9 1.4 77
2019-08-04 23:00:00 26.4 6 Sudeste 14 Sudeste 0 1012.4 1 75
2019-08-04 22:00:00 26.6 7 Este 13 Este 0 1011.9 0.2 74
2019-08-04 21:00:00 27 7 Este 13 Este 0 1011.5 -0.4 73
2019-08-04 20:00:00 28.3 8 Este 14 Este 0 1011.4 -0.7 68
2019-08-04 19:00:00 29.6 8 Sudeste 13 Sudeste 0 1011.7 -0.9 63
2019-08-04 18:00:00 30.2 6 Sudeste 13 Sudeste 0 1011.9 -1 61
2019-08-04 17:00:00 30.5 7 Sudeste 13 Sudeste 0 1012.1 -1.1 62
2019-08-04 16:00:00 31.4 6 Sudeste 13 Sudeste 0 1012.6 -0.5 58
2019-08-04 15:00:00 31.8 6 Sudeste 12 Sudeste 0 1012.9 -0.3 51
2019-08-04 14:00:00 31.9 5 Sudeste 11 Sudeste 0 1013.2 0.1 53
2019-08-04 13:00:00 31.8 6 Sudeste 11 Sudeste 0 1013.1 0.4 47
2019-08-04 12:00:00 30 7 Este 12 Este 0 1013.2 0.9 48
2019-08-04 11:00:00 29.8 6 Este 12 Nordeste 0 1013.1 1.5 61
2019-08-04 10:00:00 28.9 8 Nordeste 15 Nordeste 0 1012.7 1.4 56
2019-08-04 09:00:00 27.6 8 Nordeste 15 Nordeste 0 1012.3 1.7 55
2019-08-04 08:00:00 23.9 8 Norte 13 Norte 0 1011.6 0.4 52
2019-08-04 07:00:00 23.3 8 Nordeste 21 Nordeste 0 1011.3 -0.5 47
2019-08-04 06:00:00 23.3 13 Norte 16 Nordeste 0 1010.6 -1.4 48
2019-08-04 05:00:00 22.2 11 Norte 13 Norte 0 1011.2 -0.7 54
2019-08-04 04:00:00 22 10 Norte 14 Norte 0 1011.8 -0.3 60
2019-08-04 03:00:00 22.4 8 Norte 10 Norte 0 1012 -0.1 72
2019-08-04 02:00:00 23 6 Norte 9 Norte 0 1011.9 0 77
2019-08-04 01:00:00 23.7 5 Norte 7 Norte 0 1012.1 0.8 80
2019-08-04 00:00:00 24.4 3 Norte 6 Este 0 1012.1 1.1 78
2019-08-03 23:00:00 25.8 4 Este 10 Este 0 1011.9 0.7 75
2019-08-03 22:00:00 26.2 7 Este 13 Este 0 1011.3 0 72
2019-08-03 21:00:00 26.7 7 Este 12 Sudeste 0 1011 -0.7 69
2019-08-03 20:00:00 28.3 6 Sudeste 14 Sudeste 0 1011.2 -1 62
2019-08-03 19:00:00 29.3 9 Sudeste 16 Sudeste 0 1011.3 -1.4 56
2019-08-03 18:00:00 28.9 9 Este 16 Este 0 1011.7 -1.3 67
2019-08-03 17:00:00 29.4 9 Este 17 Este 0 1012.2 -1.2 67
2019-08-03 16:00:00 29.6 10 Este 18 Este 0 1012.7 -1 65
2019-08-03 15:00:00 29.8 9 Este 18 Este 0 1013 -0.5 65
2019-08-03 14:00:00 29.6 9 Este 15 Este 0 1013.4 0 63
2019-08-03 13:00:00 29.4 11 Este 22 Nordeste 0 1013.7 0.3 60
2019-08-03 12:00:00 29.4 12 Nordeste 22 Nordeste 0 1013.5 0.5 57
2019-08-03 11:00:00 29.6 6 Este 10 Este 0 1013.4 0.9 50
2019-08-03 10:00:00 29 5 Este 15 Nordeste 0 1013.4 1.3 50
2019-08-03 09:00:00 27.7 8 Nordeste 11 Nordeste 0 1013 1 49
2019-08-03 08:00:00 24.7 7 Norte 16 Norte 0 1012.5 0.5 48
2019-08-03 07:00:00 23.1 12 Norte 16 Norte 0 1012.1 -0.3 52
2019-08-03 06:00:00 21.2 9 Norte 11 Norte 0 1012 -0.7 71
2019-08-03 05:00:00 22.1 8 Norte 12 Norte 0 1012 -0.9 66
2019-08-03 04:00:00 22.3 9 Norte 14 Norte 0 1012.4 -0.5 68
2019-08-03 03:00:00 22.6 12 Norte 15 Norte 0 1012.7 -0.2 65
2019-08-03 02:00:00 22.8 9 Norte 12 Norte 0 1012.9 0.3 62
2019-08-03 01:00:00 23.2 8 Norte 11 Norte 0 1012.9 0.8 60
2019-08-03 00:00:00 23.7 6 Norte 10 Norte 0 1012.9 1.5 60
2019-08-02 23:00:00 24.9 6 Nordeste 17 Nordeste 0 1012.6 1.5 61
2019-08-02 22:00:00 26 11 Nordeste 22 Nordeste 0 1012.1 1.1 56
2019-08-02 21:00:00 26.3 14 Nordeste 26 Nordeste 0 1011.4 -0.1 68
2019-08-02 20:00:00 27.2 16 Nordeste 31 Este 0 1011.1 -0.7 68
2019-08-02 19:00:00 27.6 18 Nordeste 28 Este 0 1011 -1.3 67
2019-08-02 18:00:00 29.1 14 Nordeste 26 Este 0 1011.5 -1.1 61
2019-08-02 17:00:00 29 15 Este 28 Este 0 1011.8 -0.6 62
2019-08-02 16:00:00 28.5 18 Este 29 Este 0 1012.3 0 60
2019-08-02 15:00:00 28.7 20 Este 31 Este 0 1012.6 0.6 60
2019-08-02 14:00:00 28.4 21 Este 31 Este 0 1012.4 1.2 58
2019-08-02 13:00:00 29.1 16 Nordeste 32 Nordeste 0 1012.3 1.5 57
2019-08-02 12:00:00 28.9 22 Nordeste 37 Nordeste 0 1012 1.7 55
2019-08-02 11:00:00 28.5 20 Nordeste 34 Nordeste 0 1011.2 1.5 58
2019-08-02 10:00:00 28.4 17 Nordeste 32 Nordeste 0 1010.8 1.8 53
2019-08-02 09:00:00 27.2 16 Nordeste 28 Nordeste 0 1010.3 1.5 50
2019-08-02 08:00:00 25.3 13 Norte 24 Norte 0 1009.7 0.4 70
2019-08-02 07:00:00 24.7 13 Norte 24 Norte 0 1009 -0.5 84
2019-08-02 06:00:00 24.7 15 Norte 24 Norte 0 1008.8 -0.6 86
2019-08-02 05:00:00 24.6 13 Norte 20 Norte 0 1009.3 -0.7 89
2019-08-02 04:00:00 24.9 9 Norte 20 Norte 0 1009.5 -0.5 89
2019-08-02 03:00:00 24.9 12 Norte 20 Norte 0 1009.4 0.2 88
2019-08-02 02:00:00 24.8 8 Norte 12 Norte 0 1010 1.5 81
2019-08-02 01:00:00 25.5 4 Norte 8 Nordeste 0 1010 1.7 83
2019-08-02 00:00:00 26 7 Nordeste 14 Nordeste 0 1009.2 1.6 82
2019-08-01 23:00:00 26.1 9 Nordeste 16 Norte 0 1008.5 0.2 83
2019-08-01 22:00:00 26.1 11 Norte 22 Nordeste 0 1008.3 -0.6 84
2019-08-01 21:00:00 26.6 14 Nordeste 25 Este 0 1007.6 -0.8 86
2019-08-01 20:00:00 27 14 Este 29 Este 0 1008.3 -0.4 84
2019-08-01 19:00:00 27.9 10 Nordeste 17 Nordeste 0 1008.9 -0.1 79
2019-08-01 18:00:00 28.8 9 Nordeste 18 Este 0 1008.4 -0.8 76
2019-08-01 17:00:00 29.2 12 Este 23 Nordeste 0 1008.7 -0.9 73
2019-08-01 16:00:00 29.3 12 Este 20 Este 0 1009 -0.5 71
2019-08-01 15:00:00 30.1 15 Nordeste 23 Nordeste 0 1009.2 -0.8 66
2019-08-01 14:00:00 30.6 12 Nordeste 24 Nordeste 0 1009.6 -0.3 65
2019-08-01 13:00:00 30 14 Nordeste 21 Este 0 1009.5 -0.4 67
2019-08-01 12:00:00 29 12 Este 22 Este 0 1010 0.2 70
2019-08-01 11:00:00 28.5 13 Este 26 Este 0 1009.9 0.5 69
2019-08-01 10:00:00 27.4 19 Este 31 Este 0 1009.9 0.2 72
2019-08-01 09:00:00 26.7 19 Este 32 Este 0 1009.8 -0.4 75
2019-08-01 08:00:00 25.8 23 Este 35 Este 0 1009.4 -0.8 75
2019-08-01 07:00:00 25.2 24 Este 35 Este 0 1009.7 -1 78
2019-08-01 06:00:00 24.9 18 Nordeste 39 Nordeste 0 1010.2 -1.5 81
2019-08-01 05:00:00 24.8 21 Nordeste 38 Nordeste 0 1010.2 -2.2 75
2019-08-01 04:00:00 25.2 23 Nordeste 37 Nordeste 0 1010.7 -2.4 77
2019-08-01 03:00:00 25.2 20 Este 37 Este 0 1011.7 -0.2 74
2019-08-01 02:00:00 25.2 19 Este 32 Este 0 1012.4 -0.1 75
2019-08-01 01:00:00 25.1 18 Nordeste 37 Este 0 1013.1 0 73
2019-08-01 00:00:00 24.8 23 Nordeste 39 Este 0 1011.9 -0.5 71
2019-07-31 23:00:00 25 22 Nordeste 37 Nordeste 0 1012.5 0.8 70
2019-07-31 22:00:00 25.4 22 Este 39 Este 0 1013.1 0.4 68
2019-07-31 21:00:00 25.6 23 Este 36 Este 0 1012.4 -1.4 65
2019-07-31 20:00:00 25.9 23 Este 36 Este 0 1011.7 -1.5 67
2019-07-31 19:00:00 26.2 21 Este 30 Este 0 1012.7 -1.2 63
2019-07-31 18:00:00 27.3 15 Nordeste 33 Este 0 1013.8 0.1 57
2019-07-31 17:00:00 27 23 Este 37 Este 0 1013.2 -0.7 55
2019-07-31 16:00:00 27.2 24 Este 41 Este 0 1013.9 -2 56
2019-07-31 15:00:00 27.8 26 Este 45 Este 0 1013.7 -1.3 56
2019-07-31 14:00:00 26.7 22 Este 39 Este 0 1013.9 -1.1 64
2019-07-31 13:00:00 26.3 17 Este 36 Este 0 1015.9 0.5 62
2019-07-31 12:00:00 25.8 22 Este 41 Este 0 1015 -0.1 66
2019-07-31 11:00:00 26.4 22 Nordeste 40 Este 0 1015 0.5 67
2019-07-31 10:00:00 26.2 20 Nordeste 36 Nordeste 0 1015.4 1.2 65
2019-07-31 09:00:00 25.4 23 Nordeste 38 Nordeste 0 1015.1 1 68
2019-07-31 08:00:00 25 22 Nordeste 43 Nordeste 0 1014.5 0.9 68
2019-07-31 07:00:00 24.4 20 Nordeste 41 Nordeste 0 1014.2 0.8 73
2019-07-31 06:00:00 24.5 21 Nordeste 36 Nordeste 0 1014.1 0.6 72
2019-07-31 05:00:00 24.5 19 Nordeste 35 Este 0 1013.6 -0.1 73
2019-07-31 04:00:00 24.7 21 Nordeste 35 Este 0 1013.4 -0.4 74
2019-07-31 03:00:00 24.8 18 Nordeste 32 Este 0 1013.5 -0.2 74
2019-07-31 02:00:00 25.2 19 Este 30 Este 0 1013.7 0 71
2019-07-31 01:00:00 25.1 19 Este 27 Este 0 1013.8 0.7 73
2019-07-31 00:00:00 25.3 14 Este 23 Este 0 1013.7 1.2 78
2019-07-30 23:00:00 25.4 13 Este 23 Este 0 1013.7 1.5 82
2019-07-30 22:00:00 25.4 13 Este 24 Este 0 1013.1 1.1 81
2019-07-30 21:00:00 26 12 Este 25 Este 0 1012.5 0.5 83
2019-07-30 20:00:00 26.8 14 Este 26 Este 0 1012.2 0.1 80
2019-07-30 19:00:00 28 14 Sudeste 21 Sudeste 0 1012 -0.3 73
2019-07-30 18:00:00 28.7 14 Este 22 Este 0 1012 -0.4 72
2019-07-30 17:00:00 30.1 9 Sudeste 17 Sudeste 0 1012.1 -0.5 66
2019-07-30 16:00:00 30.1 9 Sudeste 17 Sudeste 0 1012.3 -0.5 65
2019-07-30 15:00:00 29.9 8 Sudeste 18 Sudeste 0 1012.4 -0.3 65
2019-07-30 14:00:00 30 8 Sudeste 17 Sudeste 0 1012.6 0.2 65
2019-07-30 13:00:00 30 9 Sudeste 17 Sudeste 0 1012.8 0.7 62
2019-07-30 12:00:00 29.6 8 Sudeste 17 Este 0 1012.7 1 60
2019-07-30 11:00:00 29.1 9 Este 17 Este 0 1012.4 1 57
2019-07-30 10:00:00 28.1 8 Este 15 Nordeste 0 1012.1 1.3 64
2019-07-30 09:00:00 26.8 8 Nordeste 12 Nordeste 0 1011.7 1.4 69
2019-07-30 08:00:00 23 8 Norte 11 Norte 0 1011.4 1.3 82
2019-07-30 07:00:00 21.4 6 Norte 8 Norte 0 1010.8 0.7 86
2019-07-30 06:00:00 21.8 6 Norte 11 Norte 0 1010.3 0.1 84
2019-07-30 05:00:00 21.7 9 Norte 11 Norte 0 1010.1 0 83
2019-07-30 04:00:00 22.2 8 Norte 10 Noroeste 0 1010.1 -0.1 82
2019-07-30 03:00:00 23.5 6 Noroeste 13 Oeste 0 1010.2 0 79
2019-07-30 02:00:00 24.1 8 Oeste 18 Oeste 0 1010.1 0.5 78
2019-07-30 01:00:00 24.5 13 Oeste 17 Oeste 0 1010.2 1.2 76
2019-07-30 00:00:00 24.3 6 Oeste 14 Sudoeste 0 1010.2 1.7 75
2019-07-29 23:00:00 24.8 7 Sudoeste 15 Sudoeste 0 1009.6 1.2 72
2019-07-29 22:00:00 25.5 8 Oeste 18 Sudoeste 0 1009 0.6 71
2019-07-29 21:00:00 26 15 Sudoeste 30 Sudoeste 0 1008.5 -0.2 72
2019-07-29 20:00:00 27.1 24 Sudoeste 33 Sudoeste 0 1008.4 -0.3 72
2019-07-29 19:00:00 27.7 26 Sudoeste 38 Sudoeste 0 1008.4 -0.6 70
2019-07-29 18:00:00 28.2 30 Sudoeste 40 Sudoeste 0 1008.7 -0.3 68
2019-07-29 17:00:00 28.5 33 Sudoeste 41 Sudoeste 0 1008.7 -0.4 67
2019-07-29 16:00:00 28.7 33 Sudoeste 45 Sudoeste 0 1009 -0.4 66
2019-07-29 15:00:00 28.9 33 Sudoeste 44 Sudoeste 0 1009 -0.5 67
2019-07-29 14:00:00 28.9 29 Sudoeste 37 Sudoeste 0 1009.1 -0.6 66
2019-07-29 13:00:00 28.5 30 Sudoeste 39 Sudoeste 0 1009.4 -0.3 67
2019-07-29 12:00:00 28.1 30 Sudoeste 37 Sudoeste 0 1009.5 0 68
2019-07-29 11:00:00 27.7 24 Sudoeste 31 Sudoeste 0 1009.7 0.7 69
2019-07-29 10:00:00 26.8 19 Sudoeste 25 Sudoeste 0 1009.7 1.1 71
2019-07-29 09:00:00 26.1 7 Sudoeste 13 Sudoeste 0 1009.5 0.9 72
2019-07-29 08:00:00 22.8 4 Noroeste 6 Norte 0 1009 0.5 79
2019-07-29 07:00:00 20.7 4 Norte 9 Norte 0 1008.6 0 83
2019-07-29 06:00:00 20.2 8 Norte 11 Norte 0 1008.6 -0.1 78
2019-07-29 05:00:00 20.8 4 Noroeste 7 Norte 0 1008.5 -0.3 81
2019-07-29 04:00:00 20.8 5 Nordeste 8 Norte 0 1008.6 -0.3 78
2019-07-29 03:00:00 22 4 Noroeste 14 Oeste 0 1008.7 -0.3 76
2019-07-29 02:00:00 22.6 7 Oeste 12 Sudoeste 0 1008.8 -0.2 72
2019-07-29 01:00:00 22.9 8 Sudoeste 15 Sudoeste 0 1008.9 0.5 69
2019-07-29 00:00:00 23.1 6 Sudoeste 15 Oeste 0 1009 1.3 63
2019-07-28 23:00:00 23.6 6 Oeste 19 Oeste 0 1009 1.6 58
2019-07-28 22:00:00 24.5 13 Oeste 29 Oeste 0 1008.4 1.6 58
2019-07-28 21:00:00 25.4 16 Oeste 33 Oeste 0 1007.7 0.8 56
2019-07-28 20:00:00 27.3 21 Oeste 40 Oeste 0 1007.4 0.2 49
2019-07-28 19:00:00 29.2 18 Oeste 37 Sudoeste 0 1006.8 -0.9 35
2019-07-28 18:00:00 28.1 28 Sudoeste 37 Sudoeste 0 1006.9 -0.8 55
2019-07-28 17:00:00 28.4 30 Sudoeste 37 Sudoeste 0 1007.2 -0.2 59
2019-07-28 16:00:00 29.6 23 Sudoeste 33 Sudoeste 0 1007.7 0.3 57
2019-07-28 15:00:00 29.5 23 Sudoeste 33 Sudoeste 0 1007.7 0.2 57
2019-07-28 14:00:00 27.6 29 Sur 35 Sur 0 1007.4 0.2 64
2019-07-28 13:00:00 27.3 23 Sur 30 Sur 0 1007.4 0.7 63
2019-07-28 12:00:00 27.1 18 Sur 27 Sur 0 1007.5 1.3 63
2019-07-28 11:00:00 28 9 Sudeste 19 Sudeste 0 1007.2 1.5 60
2019-07-28 10:00:00 27 8 Sudeste 16 Sudeste 0 1006.7 1.7 59
2019-07-28 09:00:00 25.9 5 Este 12 Este 0 1006.2 1.9 68
2019-07-28 08:00:00 22.8 6 Norte 13 Norte 0 1005.7 1.9 81
2019-07-28 07:00:00 22 8 Norte 13 Norte 0 1005 1.3 84
2019-07-28 06:00:00 22.4 9 Norte 18 Nordeste 0 1004.3 0.7 82
2019-07-28 05:00:00 23.4 9 Nordeste 27 Nordeste 0 1003.8 0.6 80
2019-07-28 04:00:00 24 16 Nordeste 31 Nordeste 0 1003.7 0.8 82
2019-07-28 03:00:00 24.8 20 Nordeste 30 Nordeste 0 1003.6 0.7 75
2019-07-28 02:00:00 25.6 6 Noroeste 16 Noroeste 0 1003.2 0.2 62
2019-07-28 01:00:00 26.2 7 Oeste 24 Oeste 0 1002.9 0.6 60
2019-07-28 00:00:00 26.4 13 Oeste 24 Oeste 0 1002.9 1.3 62
2019-07-27 23:00:00 26.7 11 Oeste 29 Oeste 0 1003 2.3 59
2019-07-26 12:00:00 29.2 8 Sudeste 15 Sudeste 0 1009.3 -0.7 72
2019-07-26 11:00:00 29.3 8 Sur 12 Sur 0 1009.6 0 73
2019-07-26 10:00:00 28.5 5 Sudeste 13 Sudeste 0 1009.8 0.4 76
2019-07-26 09:00:00 27.4 5 Este 10 Nordeste 0 1010 0.5 81
2019-07-26 08:00:00 24.2 8 Norte 13 Norte 0 1009.6 -0.3 89
2019-07-26 07:00:00 23.3 9 Norte 13 Norte 0 1009.4 -0.7 92
2019-07-26 06:00:00 23.4 9 Norte 14 Norte 0 1009.5 -1 91
2019-07-26 05:00:00 23.4 9 Norte 12 Norte 0 1009.9 -1.1 91
2019-07-26 04:00:00 23.3 8 Norte 11 Norte 0 1010.1 -1.1 89
2019-07-26 03:00:00 23.8 8 Norte 10 Norte 0 1010.5 -1 89
2019-07-26 02:00:00 24.2 7 Norte 9 Norte 0 1011 -0.8 88
2019-07-26 01:00:00 24.6 7 Norte 9 Norte 0 1011.2 -0.4 86
2019-07-26 00:00:00 25.4 3 Nordeste 7 Sudeste 0 1011.5 0.2 84
2019-07-25 23:00:00 26.4 4 Este 9 Sudeste 0 1011.8 0.6 81
2019-07-25 22:00:00 26.7 5 Sudeste 11 Sudeste 0 1011.6 0.5 80
2019-07-25 21:00:00 27.4 6 Sudeste 10 Sudeste 0 1011.3 -0.3 76
2019-07-25 20:00:00 28.6 6 Sudeste 14 Este 0 1011.2 -1 71
2019-07-25 19:00:00 29 9 Este 16 Sudeste 0 1011.1 -1.4 71
2019-07-25 18:00:00 30.1 8 Este 15 Este 0 1011.6 -1.2 67
2019-07-25 17:00:00 30.7 9 Sudeste 15 Este 0 1012.2 -0.8 67
2019-07-25 16:00:00 31.2 9 Sudeste 15 Este 0 1012.5 -0.5 62
2019-07-25 15:00:00 30.2 8 Este 15 Este 0 1012.8 0 67
2019-07-25 14:00:00 30.1 8 Este 13 Sudeste 0 1013 0 67
2019-07-25 13:00:00 30.1 8 Este 16 Este 0 1013 0.1 67
2019-07-25 12:00:00 29.7 10 Este 18 Este 0 1012.8 0 72
2019-07-25 11:00:00 28.8 10 Este 19 Este 0 1013 0.1 74
2019-07-25 10:00:00 27.9 12 Este 19 Nordeste 0 1012.9 0.4 78
2019-07-25 09:00:00 26.8 10 Nordeste 16 Nordeste 0 1012.8 0.5 85
2019-07-25 08:00:00 24.5 6 Norte 13 Nordeste 0 1012.9 0.6 93
2019-07-25 07:00:00 23.6 8 Norte 13 Nordeste 0 1012.5 0.2 94
2019-07-25 06:00:00 23.5 7 Norte 10 Norte 0 1012.3 -0.3 93
2019-07-25 05:00:00 23.8 5 Norte 8 Norte 0 1012.3 -0.6 93
2019-07-25 04:00:00 24.1 7 Norte 9 Norte 0 1012.3 -0.8 93
2019-07-25 03:00:00 24.2 6 Norte 8 Norte 0 1012.6 -0.7 91
2019-07-25 02:00:00 25.5 4 Este 10 Este 0 1012.9 -0.4 89
2019-07-25 01:00:00 25.8 5 Este 9 Este 0 1013.1 0.1 88
2019-07-25 00:00:00 26 6 Este 10 Sudeste 0 1013.3 0.5 87
2019-07-24 23:00:00 26.2 7 Este 11 Sudeste 0 1013.3 0.5 83
2019-07-24 22:00:00 26.4 7 Este 12 Este 0 1013 0.2 82
2019-07-24 21:00:00 26.8 7 Este 13 Sudeste 0 1012.8 -0.3 78
2019-07-24 20:00:00 28.3 7 Sudeste 14 Sudeste 0 1012.8 -0.6 74
2019-07-24 19:00:00 29.2 7 Este 14 Este 0 1012.8 -0.8 67
2019-07-24 18:00:00 30.3 7 Sudeste 14 Sudeste 0 1013.1 -0.7 59
2019-07-24 17:00:00 30.5 8 Sudeste 19 Sudeste 0 1013.4 -0.8 64
2019-07-24 16:00:00 30.4 12 Sudeste 19 Este 0 1013.6 -0.6 65
2019-07-24 15:00:00 29.4 14 Este 21 Este 0 1013.8 -0.3 68
2019-07-24 14:00:00 29.7 11 Este 21 Este 0 1014.2 0 68
2019-07-24 13:00:00 28.9 14 Este 20 Este 0 1014.2 0.3 72
2019-07-24 12:00:00 29.6 10 Este 19 Este 0 1014.1 0.3 68
2019-07-24 11:00:00 28.8 12 Nordeste 19 Nordeste 0 1014.2 0.6 71
2019-07-24 10:00:00 27.9 12 Nordeste 16 Nordeste 0 1013.9 0.6 75
2019-07-24 09:00:00 27 9 Nordeste 13 Nordeste 0 1013.8 0.6 79
2019-07-24 08:00:00 24.4 7 Norte 12 Norte 0 1013.6 0.4 87
2019-07-24 07:00:00 23.2 8 Norte 13 Norte 0 1013.3 -0.3 90
2019-07-24 06:00:00 23 10 Norte 13 Norte 0 1013.2 -0.7 89
2019-07-24 05:00:00 23 9 Norte 11 Nordeste 0 1013.2 -0.9 88
2019-07-24 04:00:00 23.6 8 Nordeste 11 Norte 0 1013.6 -0.6 86
2019-07-24 03:00:00 24 9 Norte 13 Norte 0 1013.9 -0.2 84
2019-07-24 02:00:00 24 8 Norte 12 Norte 0 1014.1 -0.2 85
2019-07-24 01:00:00 25.5 6 Nordeste 12 Este 0 1014.2 0 81
2019-07-24 00:00:00 25.8 6 Este 11 Este 0 1014.1 0 81
2019-07-23 23:00:00 26 6 Este 14 Este 0 1014.3 0.1 82
2019-07-23 22:00:00 26.3 8 Este 14 Este 0 1014.2 -0.2 83
2019-07-23 21:00:00 26.8 7 Este 12 Este 0 1014.1 -0.6 80
2019-07-23 20:00:00 28 8 Este 16 Este 0 1014.2 -0.8 74
2019-07-23 19:00:00 28.6 10 Este 17 Este 0 1014.4 -1 70
2019-07-23 18:00:00 30 8 Este 16 Sudeste 0 1014.7 -0.8 61
2019-07-23 17:00:00 30.6 10 Sudeste 15 Sudeste 0 1015 -1 62
2019-07-23 16:00:00 30.4 9 Este 15 Este 0 1015.4 -0.7 58
2019-07-23 15:00:00 30.6 8 Este 13 Este 0 1015.5 -0.7 59
2019-07-23 14:00:00 31.2 6 Sudeste 12 Este 0 1016 -0.1 57
2019-07-23 13:00:00 30.9 6 Sudeste 10 Sudeste 0 1016.1 -0.1 57
2019-07-23 12:00:00 29.8 4 Sudeste 13 Este 0 1016.2 -0.2 65
2019-07-23 11:00:00 28.7 7 Este 14 Nordeste 0 1016.1 -0.1 71
2019-07-23 10:00:00 27.7 9 Nordeste 14 Nordeste 0 1016.2 0.1 78
2019-07-23 09:00:00 26.5 9 Nordeste 14 Nordeste 0 1016.4 0.3 82
2019-07-23 08:00:00 24 6 Norte 13 Norte 0 1016.2 -0.2 90
2019-07-23 07:00:00 23.4 10 Norte 13 Norte 0 1016.1 -0.5 93
2019-07-23 06:00:00 23.2 10 Norte 13 Norte 0 1016.1 -0.7 93
2019-07-23 05:00:00 23 9 Norte 13 Norte 0 1016.4 -0.7 91
2019-07-23 04:00:00 23.1 8 Norte 10 Norte 0 1016.6 -0.7 90
2019-07-23 03:00:00 23.7 8 Norte 10 Norte 0 1016.8 -0.6 88
2019-07-23 02:00:00 23.8 7 Norte 10 Nordeste 0 1017.1 -0.5 85
2019-07-23 01:00:00 25.5 7 Este 14 Este 0 1017.3 -0.3 85
2019-07-23 00:00:00 25.7 7 Este 12 Este 0 1017.4 -0.2 83
2019-07-22 23:00:00 26.1 5 Este 9 Este 0 1017.6 0 79
2019-07-22 22:00:00 26.4 5 Este 9 Este 0 1017.6 -0.1 74
2019-07-22 21:00:00 27.2 5 Este 12 Este 0 1017.6 -0.5 69
2019-07-22 20:00:00 28.6 6 Este 12 Este 0 1017.6 -1 62
2019-07-22 19:00:00 29.6 6 Este 11 Este 0 1017.7 -1.2 57
2019-07-22 18:00:00 30.3 6 Este 10 Este 0 1018.1 -0.9 54
2019-07-22 17:00:00 30.7 6 Este 10 Este 0 1018.6 -0.8 55
2019-07-22 16:00:00 31.2 5 Sudeste 11 Este 0 1018.9 -0.6 54
2019-07-22 15:00:00 30.6 7 Este 14 Este 0 1019 -0.3 56
2019-07-22 14:00:00 30.4 7 Este 16 Este 0 1019.4 0 59
2019-07-22 13:00:00 29.5 11 Este 21 Este 0 1019.5 0.2 65
2019-07-22 12:00:00 29 13 Este 19 Este 0 1019.3 0 66
2019-07-22 11:00:00 28.8 12 Este 17 Este 0 1019.4 0.2 66
2019-07-22 10:00:00 28.1 10 Nordeste 17 Nordeste 0 1019.3 0.3 70
2019-07-22 09:00:00 26.8 8 Nordeste 18 Nordeste 0 1019.3 0.7 79
2019-07-22 08:00:00 25.7 10 Nordeste 21 Nordeste 0 1019.2 0.8 84
2019-07-22 07:00:00 23.3 9 Norte 17 Nordeste 0 1019 0.6 89
2019-07-22 06:00:00 23.4 10 Nordeste 16 Nordeste 0 1018.6 -0.2 88
2019-07-22 05:00:00 23 8 Norte 14 Norte 0 1018.4 -0.6 84
2019-07-22 04:00:00 24.4 10 Nordeste 15 Nordeste 0 1018.4 -0.8 82
2019-07-22 03:00:00 23.4 8 Norte 15 Norte 0 1018.8 -0.2 80
2019-07-22 02:00:00 23.6 10 Norte 15 Norte 0 1019 0.2 77
2019-07-22 01:00:00 24 10 Norte 13 Nordeste 0 1019.2 1.3 77
2019-07-22 00:00:00 24.4 9 Norte 17 Nordeste 0 1019 1.6 78
2019-07-21 23:00:00 25.9 10 Nordeste 17 Nordeste 0 1018.8 1.4 75
2019-07-21 22:00:00 26 10 Nordeste 17 Nordeste 0 1017.9 0.5 76
2019-07-21 21:00:00 26.4 9 Nordeste 16 Nordeste 0 1017.4 -0.3 73
2019-07-21 20:00:00 27.5 10 Nordeste 16 Este 0 1017.4 -0.6 71
2019-07-21 19:00:00 28 11 Este 17 Este 0 1017.4 -0.7 69
2019-07-21 18:00:00 28.7 12 Este 18 Este 0 1017.7 -0.7 67
2019-07-21 17:00:00 29.3 10 Este 19 Sudeste 0 1018 -0.5 65
2019-07-21 16:00:00 29.7 12 Este 20 Sudeste 0 1018.1 -0.4 63
2019-07-21 15:00:00 30.1 11 Sudeste 18 Este 0 1018.4 0.5 62
2019-07-21 14:00:00 29.4 13 Este 21 Este 0 1018.5 1.1 65
2019-07-21 13:00:00 28.8 14 Este 23 Este 0 1018.5 1.4 64
2019-07-21 12:00:00 28.6 14 Este 25 Este 0 1017.9 1.2 68
2019-07-21 11:00:00 28.4 13 Este 28 Este 0 1017.4 1 70
2019-07-21 10:00:00 27.7 16 Este 28 Este 0 1017.1 1.2 74
2019-07-21 09:00:00 27 15 Este 30 Este 0 1016.7 1.2 76
2019-07-21 08:00:00 25.9 23 Este 34 Este 0 1016.4 1.1 81
2019-07-21 07:00:00 25.4 19 Este 31 Este 0 1015.9 0.3 86
2019-07-21 06:00:00 25.1 14 Nordeste 23 Este 0 1015.5 -0.4 86
2019-07-21 05:00:00 24.3 13 Nordeste 22 Nordeste 0 1015.3 -0.9 87
2019-07-21 04:00:00 25.3 10 Este 17 Este 0 1015.6 -0.6 80
2019-07-21 03:00:00 25.4 10 Este 15 Este 0 1015.9 0.1 80
2019-07-21 02:00:00 25.5 10 Este 17 Este 0 1016.2 0.9 83
2019-07-21 01:00:00 25.4 8 Nordeste 18 Este 0 1016.2 1.6 82
2019-07-21 00:00:00 25.7 13 Este 19 Este 0 1015.8 1.6 81
2019-07-20 23:00:00 25.9 11 Este 20 Este 0 1015.3 1.2 79
2019-07-20 22:00:00 25.9 10 Este 19 Este 0 1014.6 0.6 75
2019-07-20 21:00:00 26.2 11 Este 20 Este 0 1014.2 0 74
2019-07-20 20:00:00 27.2 12 Este 23 Este 0 1014.1 -0.5 69
2019-07-20 19:00:00 28 11 Este 23 Este 0 1014 -0.7 66
2019-07-20 18:00:00 28.5 12 Este 22 Este 0 1014.2 -0.9 68
2019-07-20 17:00:00 28.5 14 Este 23 Este 0 1014.6 -0.1 68
2019-07-20 16:00:00 28.9 13 Este 21 Este 0 1014.7 0.1 67
2019-07-20 15:00:00 29.8 11 Este 19 Este 0 1015.1 1 63
2019-07-20 14:00:00 29 13 Este 20 Este 0 1014.7 1 66
2019-07-20 13:00:00 29.3 12 Este 23 Este 0 1014.6 0.8 65
2019-07-20 12:00:00 29.1 10 Este 23 Este 0 1014.1 1.3 66
2019-07-20 11:00:00 28 14 Este 24 Este 0 1013.7 0.7 70
2019-07-20 10:00:00 27.7 13 Este 24 Este 0 1013.8 1.2 70
2019-07-20 09:00:00 26.7 18 Este 27 Este 0 1012.8 0.2 72
2019-07-20 08:00:00 26.4 13 Este 19 Este 0 1013 0.6 73
2019-07-20 07:00:00 25.3 8 Este 15 Este 0 1012.6 0.4 76
2019-07-20 06:00:00 25.2 10 Este 16 Sudeste 0 1012.6 0 77
2019-07-20 05:00:00 25.3 9 Sudeste 21 Sudeste 0 1012.4 -0.6 79
2019-07-20 04:00:00 25.4 12 Sudeste 23 Sudeste 0 1012.2 -1.2 79
2019-07-20 03:00:00 25.4 11 Sudeste 21 Sudeste 0 1012.6 -0.5 80
2019-07-20 02:00:00 25.5 10 Sudeste 22 Sudeste 0 1013 -0.3 80
2019-07-20 01:00:00 25.6 9 Sudeste 18 Sudeste 0 1013.4 0.6 80
2019-07-20 00:00:00 25.7 11 Sudeste 19 Sudeste 0 1013.1 0.2 79
2019-07-19 23:00:00 25.8 9 Sur 18 Sudeste 0 1013.3 0.4 79
2019-07-19 22:00:00 25.8 9 Sudeste 20 Sudeste 0 1012.8 -0.3 78
2019-07-19 21:00:00 26.3 9 Sudeste 17 Sudeste 0 1012.9 -0.6 75
2019-07-19 20:00:00 27.4 9 Sudeste 20 Sudeste 0 1012.9 -1 68
2019-07-19 19:00:00 27.9 10 Sudeste 22 Sudeste 0 1013.1 -1.1 65
2019-07-19 18:00:00 28.7 10 Sudeste 21 Sudeste 0 1013.5 -1.1 61
2019-07-19 17:00:00 28.9 10 Sudeste 21 Sudeste 0 1013.9 -1.1 61
2019-07-19 16:00:00 29 10 Sudeste 20 Sudeste 0 1014.2 -1 64
2019-07-19 15:00:00 29.3 9 Sudeste 18 Sudeste 0 1014.6 -0.6 67
2019-07-19 14:00:00 28.9 10 Sur 22 Sudeste 0 1015 0 68
2019-07-19 13:00:00 29 9 Sur 17 Sudeste 0 1015.2 0.4 68
2019-07-19 12:00:00 28.6 8 Sudeste 17 Sudeste 0 1015.2 0.6 68
2019-07-19 11:00:00 28.7 9 Sudeste 17 Sudeste 0 1015 0.9 68
2019-07-19 10:00:00 27.3 7 Este 13 Este 0 1014.8 0.9 73
2019-07-19 09:00:00 26.5 7 Nordeste 13 Nordeste 0 1014.6 0.9 71
2019-07-19 08:00:00 23.6 6 Norte 10 Norte 0 1014.1 0.5 78
2019-07-19 07:00:00 21.8 8 Norte 8 Norte 0 1013.9 0.3 84
2019-07-19 06:00:00 21.7 8 Norte 9 Norte 0 1013.7 -0.2 84
2019-07-19 05:00:00 21.7 8 Norte 10 Norte 0 1013.6 -0.6 82
2019-07-19 04:00:00 22.1 7 Norte 8 Norte 0 1013.6 -0.4 80
2019-07-19 03:00:00 22.5 5 Norte 8 Norte 0 1013.9 0.1 77
2019-07-19 02:00:00 22.8 7 Norte 8 Norte 0 1014.2 0.6 74
2019-07-19 01:00:00 23.3 6 Norte 7 Norte 0 1014 0.9 70
2019-07-19 00:00:00 24.8 4 Oeste 11 Sudoeste 0 1013.8 1.1 70